Time;durP1;ratioP1;P1;durP2;ratioP2;P2;SDS_P1;SDS_P2;PMS_P1;PMS_P2;Temp;Humidity;BMP_temperature;BMP_pressure;BME280_temperature;BME280_humidity;BME280_pressure;Samples;Min_cycle;Max_cycle;Signal;HPM_P1;HPM_P2
2023/06/05 00:00:33;;;;;;;4.47;1.30;;;20.00;99.90;;;;;;5054212;28;20696;-69
2023/06/05 00:03:00;;;;;;;3.73;1.40;;;19.80;99.90;;;;;;5054071;28;20188;-68
2023/06/05 00:05:29;;;;;;;8.33;1.87;;;20.20;99.90;;;;;;5053869;28;20215;-68
2023/06/05 00:07:57;;;;;;;3.17;1.00;;;20.30;99.90;;;;;;5053387;28;20545;-69
2023/06/05 00:10:31;;;;;;;5.67;1.43;;;20.10;99.90;;;;;;5053254;28;20176;-69
2023/06/05 00:12:59;;;;;;;8.87;1.57;;;20.20;99.90;;;;;;5053391;28;20226;-70
2023/06/05 00:15:27;;;;;;;10.00;1.80;;;20.20;99.90;;;;;;5035990;28;20176;-70
2023/06/05 00:17:55;;;;;;;5.87;1.70;;;20.00;99.90;;;;;;5053494;28;20207;-70
2023/06/05 00:20:22;;;;;;;6.67;1.57;;;20.30;99.90;;;;;;5053704;28;20260;-69
2023/06/05 00:22:50;;;;;;;7.53;1.53;;;20.80;99.90;;;;;;5035549;28;20184;-70
2023/06/05 00:25:18;;;;;;;5.73;1.83;;;21.00;99.90;;;;;;5053666;28;20203;-70
2023/06/05 00:27:46;;;;;;;9.60;1.67;;;20.90;99.90;;;;;;5053715;28;20169;-70
2023/06/05 00:30:14;;;;;;;4.60;1.70;;;21.10;99.90;;;;;;5053308;28;20212;-69
2023/06/05 00:32:42;;;;;;;4.67;1.30;;;21.30;99.90;;;;;;5052959;28;20173;-71
2023/06/05 00:35:10;;;;;;;5.10;1.60;;;21.50;99.90;;;;;;5056121;28;20199;-70
2023/06/05 00:37:37;;;;;;;8.20;2.10;;;21.50;99.90;;;;;;5053558;28;20186;-70
2023/06/05 00:40:06;;;;;;;12.60;1.87;;;21.50;99.90;;;;;;5052977;28;20188;-71
2023/06/05 00:42:34;;;;;;;5.40;1.50;;;21.20;99.90;;;;;;5067383;28;20640;-71
2023/06/05 00:45:02;;;;;;;5.20;1.47;;;21.10;99.90;;;;;;5073301;28;20231;-70
2023/06/05 00:47:30;;;;;;;7.57;1.50;;;21.20;99.90;;;;;;5069654;28;20564;-69
2023/06/05 00:49:58;;;;;;;5.43;1.40;;;21.30;99.90;;;;;;5053043;28;20326;-70
2023/06/05 00:52:30;;;;;;;9.57;1.87;;;21.10;99.90;;;;;;5053110;28;20195;-71
2023/06/05 00:54:58;;;;;;;5.17;1.43;;;20.70;99.90;;;;;;5035532;28;20173;-70
2023/06/05 00:57:28;;;;;;;5.13;1.13;;;20.40;99.90;;;;;;5053089;28;20176;-71
2023/06/05 00:59:56;;;;;;;9.00;1.40;;;20.00;99.90;;;;;;5052992;28;20192;-70
2023/06/05 01:02:24;;;;;;;6.50;1.20;;;19.80;99.90;;;;;;5053209;28;20553;-70
2023/06/05 01:04:52;;;;;;;6.37;1.50;;;19.60;99.90;;;;;;5052375;28;20265;-70
2023/06/05 01:07:21;;;;;;;5.03;1.60;;;19.10;99.90;;;;;;5050824;28;20623;-71
2023/06/05 01:09:49;;;;;;;9.70;1.50;;;18.80;99.90;;;;;;5060015;28;20639;-71
2023/06/05 01:12:37;;;;;;;4.30;1.47;;;18.60;99.90;;;;;;5054780;28;20210;-70
2023/06/05 01:15:07;;;;;;;5.70;1.30;;;18.60;99.90;;;;;;5071666;28;20184;-69
2023/06/05 01:17:37;;;;;;;5.53;1.50;;;18.70;99.90;;;;;;5046430;28;20187;-69
2023/06/05 01:20:08;;;;;;;7.67;1.60;;;18.60;99.90;;;;;;5060028;28;20194;-70
2023/06/05 01:22:39;;;;;;;6.77;1.33;;;18.50;99.90;;;;;;5052768;28;20192;-69
2023/06/05 01:25:09;;;;;;;7.27;1.13;;;18.70;99.90;;;;;;5051488;28;20298;-70
2023/06/05 01:28:09;;;;;;;11.47;1.80;;;18.80;99.90;;;;;;5042740;28;20172;-70
2023/06/05 01:31:03;;;;;;;6.47;1.40;;;19.00;99.90;;;;;;5016982;28;20198;-71
2023/06/05 01:33:44;;;;;;;5.10;1.30;;;19.40;99.90;;;;;;5032742;28;20179;-70
2023/06/05 01:36:13;;;;;;;4.23;1.40;;;19.60;99.90;;;;;;5048865;28;20188;-70
2023/06/05 01:38:42;;;;;;;8.83;1.50;;;19.30;99.90;;;;;;5052128;28;20173;-71
2023/06/05 01:41:12;;;;;;;5.17;1.40;;;19.40;99.90;;;;;;5051385;28;20191;-70
2023/06/05 01:43:41;;;;;;;7.00;2.40;;;19.40;99.90;;;;;;5052305;28;20173;-71
2023/06/05 01:46:09;;;;;;;4.57;1.00;;;19.20;99.90;;;;;;5051769;28;20577;-70
2023/06/05 01:48:38;;;;;;;8.57;1.20;;;19.10;99.90;;;;;;5052169;28;20188;-70
2023/06/05 01:51:06;;;;;;;3.97;0.90;;;19.00;99.90;;;;;;5052030;28;20178;-70
2023/06/05 01:53:34;;;;;;;4.90;1.33;;;19.00;99.90;;;;;;5051811;28;20206;-70
2023/06/05 01:56:02;;;;;;;6.10;1.10;;;19.00;99.90;;;;;;5051392;28;20578;-70
2023/06/05 01:58:30;;;;;;;4.33;1.10;;;18.90;99.90;;;;;;5052085;28;20492;-70
2023/06/05 02:00:57;;;;;;;4.20;1.27;;;18.70;99.90;;;;;;5051911;28;20184;-70
2023/06/05 02:03:26;;;;;;;5.80;1.23;;;18.40;99.90;;;;;;5051833;28;20178;-70
2023/06/05 02:05:54;;;;;;;4.97;1.20;;;17.70;99.90;;;;;;5051409;28;20212;-70
2023/06/05 02:08:22;;;;;;;7.37;1.40;;;17.40;99.90;;;;;;5051917;28;20172;-70
2023/06/05 02:10:52;;;;;;;5.40;1.63;;;17.00;99.90;;;;;;5051743;28;20551;-70
2023/06/05 02:13:22;;;;;;;5.57;1.53;;;16.90;99.90;;;;;;5052005;28;20173;-70
2023/06/05 02:15:55;;;;;;;5.53;1.40;;;16.80;99.90;;;;;;5050743;28;20185;-69
2023/06/05 02:18:25;;;;;;;6.53;1.60;;;16.70;99.90;;;;;;5051639;28;20525;-71
2023/06/05 02:20:57;;;;;;;4.17;1.70;;;16.60;99.90;;;;;;5050887;28;20664;-69
2023/06/05 02:23:25;;;;;;;8.17;2.90;;;16.60;99.90;;;;;;5051208;28;20235;-70
2023/06/05 02:25:52;;;;;;;11.93;2.77;;;16.60;99.90;;;;;;5051415;28;20642;-70
2023/06/05 02:28:21;;;;;;;5.07;1.43;;;16.60;99.90;;;;;;5051268;28;20180;-70
2023/06/05 02:30:48;;;;;;;9.30;1.83;;;16.50;99.90;;;;;;5051367;28;20195;-70
2023/06/05 02:33:17;;;;;;;6.60;1.50;;;16.50;99.90;;;;;;5050110;28;20191;-70
2023/06/05 02:35:44;;;;;;;4.90;1.33;;;16.50;99.90;;;;;;5031859;28;20177;-71
2023/06/05 02:38:12;;;;;;;5.00;1.73;;;16.50;99.90;;;;;;5031614;28;20181;-71
2023/06/05 02:40:40;;;;;;;11.60;1.57;;;16.50;99.90;;;;;;5040936;28;20196;-71
2023/06/05 02:43:08;;;;;;;6.23;1.63;;;16.30;99.90;;;;;;5051266;28;20199;-70
2023/06/05 02:45:35;;;;;;;7.23;1.40;;;16.30;99.90;;;;;;5051118;28;20235;-70
2023/06/05 02:48:03;;;;;;;7.07;1.70;;;16.30;99.90;;;;;;5051053;28;20223;-70
2023/06/05 02:50:31;;;;;;;8.20;2.07;;;16.30;99.90;;;;;;5051245;28;20263;-70
2023/06/05 02:52:59;;;;;;;2.23;1.07;;;16.50;99.90;;;;;;5051329;28;20825;-71
2023/06/05 02:55:29;;;;;;;6.20;1.83;;;16.70;99.90;;;;;;5051285;28;20260;-69
2023/06/05 02:57:57;;;;;;;4.83;1.40;;;17.20;99.90;;;;;;5050956;28;20220;-72
2023/06/05 03:00:26;;;;;;;6.63;1.60;;;17.70;99.90;;;;;;5051135;28;20231;-70
2023/06/05 03:02:55;;;;;;;5.97;1.57;;;18.40;99.90;;;;;;5051148;28;20187;-70
2023/06/05 03:05:27;;;;;;;4.20;1.07;;;19.00;99.90;;;;;;5050964;28;20526;-69
2023/06/05 03:07:54;;;;;;;5.00;1.30;;;19.90;99.90;;;;;;5050716;28;20186;-70
2023/06/05 03:10:22;;;;;;;4.87;1.30;;;20.10;99.90;;;;;;5051080;28;20169;-71
2023/06/05 03:12:50;;;;;;;4.70;1.37;;;20.40;99.90;;;;;;5050764;28;20211;-70
2023/06/05 03:15:18;;;;;;;8.23;1.77;;;20.70;99.90;;;;;;5051181;28;20638;-70
2023/06/05 03:17:46;;;;;;;6.80;1.70;;;20.60;99.90;;;;;;5051018;28;20219;-69
2023/06/05 03:20:17;;;;;;;6.27;1.30;;;20.50;99.90;;;;;;5051136;28;20172;-69
2023/06/05 03:22:45;;;;;;;5.00;1.47;;;20.60;99.90;;;;;;5050429;28;20183;-68
2023/06/05 03:25:13;;;;;;;5.63;1.40;;;20.40;99.90;;;;;;5050967;28;20176;-68
2023/06/05 03:27:41;;;;;;;5.90;1.83;;;20.10;99.90;;;;;;5052657;28;20199;-68
2023/06/05 03:30:09;;;;;;;6.97;1.27;;;20.20;99.90;;;;;;5054636;28;20199;-70
2023/06/05 03:32:37;;;;;;;5.43;1.60;;;19.70;99.90;;;;;;5054486;28;20250;-69
2023/06/05 03:35:06;;;;;;;9.03;1.50;;;19.30;99.90;;;;;;5054111;28;20196;-68
2023/06/05 03:37:34;;;;;;;6.30;1.60;;;19.20;99.90;;;;;;5054462;28;20224;-68
2023/06/05 03:40:01;;;;;;;8.03;2.00;;;19.20;99.90;;;;;;5053869;28;20252;-69
2023/06/05 03:42:29;;;;;;;11.10;1.90;;;19.20;99.90;;;;;;5054286;28;20228;-70
2023/06/05 03:44:57;;;;;;;7.97;1.53;;;19.00;99.90;;;;;;5054263;28;20222;-69
2023/06/05 03:47:28;;;;;;;12.23;1.50;;;19.10;99.90;;;;;;5054600;28;20190;-68
2023/06/05 03:49:56;;;;;;;9.13;2.00;;;19.10;99.90;;;;;;5054151;28;20673;-69
2023/06/05 03:52:24;;;;;;;8.73;1.40;;;19.00;99.90;;;;;;5054553;28;20188;-69
2023/06/05 03:54:55;;;;;;;15.37;2.90;;;18.90;99.90;;;;;;5054429;28;20172;-69
2023/06/05 03:57:24;;;;;;;9.03;2.73;;;18.40;99.90;;;;;;5054618;28;20318;-70
2023/06/05 03:59:52;;;;;;;8.70;2.67;;;18.10;99.90;;;;;;5053545;28;20187;-67
2023/06/05 04:02:20;;;;;;;9.40;2.80;;;18.00;99.90;;;;;;5054179;28;20177;-69
2023/06/05 04:04:50;;;;;;;6.27;2.13;;;17.80;99.90;;;;;;5053327;28;20180;-69
2023/06/05 04:07:18;;;;;;;5.07;1.87;;;17.90;99.90;;;;;;5054174;28;20402;-70
2023/06/05 04:09:46;;;;;;;3.77;1.50;;;18.10;99.90;;;;;;5053778;28;20648;-70
2023/06/05 04:12:14;;;;;;;4.53;1.80;;;18.30;99.90;;;;;;5036159;28;20192;-69
2023/06/05 04:14:42;;;;;;;8.00;2.00;;;18.50;99.90;;;;;;5054014;28;20621;-70
2023/06/05 04:17:10;;;;;;;5.33;1.30;;;18.70;99.90;;;;;;5035915;28;20563;-69
2023/06/05 04:19:38;;;;;;;10.60;4.17;;;18.90;99.90;;;;;;5053359;28;20185;-70
2023/06/05 04:22:06;;;;;;;5.57;1.20;;;19.10;99.90;;;;;;5053824;28;20185;-70
2023/06/05 04:24:34;;;;;;;7.37;1.93;;;19.20;99.90;;;;;;5053445;28;20257;-70
2023/06/05 04:27:02;;;;;;;4.03;1.43;;;19.20;99.90;;;;;;5053663;28;20212;-70
2023/06/05 04:29:32;;;;;;;7.13;1.73;;;19.40;99.90;;;;;;5053410;28;20290;-70
2023/06/05 04:32:00;;;;;;;7.13;0.93;;;19.40;99.90;;;;;;5053803;28;20185;-69
2023/06/05 04:34:28;;;;;;;7.53;1.40;;;19.50;99.90;;;;;;5053396;28;20234;-69
2023/06/05 04:36:56;;;;;;;4.27;1.20;;;19.40;99.90;;;;;;5053438;28;20305;-71
2023/06/05 04:39:24;;;;;;;8.30;1.50;;;19.30;99.90;;;;;;5052250;28;20214;-70
2023/06/05 04:41:52;;;;;;;6.77;1.53;;;19.10;99.90;;;;;;5053206;28;20646;-70
2023/06/05 04:44:20;;;;;;;4.23;1.40;;;19.10;99.90;;;;;;5052953;28;20187;-69
2023/06/05 04:46:47;;;;;;;4.67;1.40;;;19.00;99.90;;;;;;5053336;28;20266;-70
2023/06/05 04:49:16;;;;;;;6.10;1.20;;;19.10;99.90;;;;;;5053165;28;20190;-70
2023/06/05 04:51:44;;;;;;;4.60;1.27;;;19.50;99.90;;;;;;5053240;28;20250;-69
2023/06/05 04:54:12;;;;;;;3.67;1.30;;;20.00;99.90;;;;;;5033491;28;20233;-68
2023/06/05 04:56:39;;;;;;;2.50;1.27;;;19.80;99.90;;;;;;5052771;28;20200;-68
2023/06/05 04:59:07;;;;;;;1.87;0.83;;;19.70;99.90;;;;;;5053065;28;20210;-69
2023/06/05 05:01:36;;;;;;;10.10;1.33;;;19.50;99.90;;;;;;5047667;28;20242;-69
2023/06/05 05:04:04;;;;;;;2.30;1.17;;;19.40;99.90;;;;;;5053007;28;20543;-68
2023/06/05 05:06:33;;;;;;;4.17;1.37;;;19.40;99.90;;;;;;5052802;28;20222;-69
2023/06/05 05:09:04;;;;;;;8.43;1.67;;;19.30;99.90;;;;;;5052568;28;20634;-68
2023/06/05 05:11:32;;;;;;;6.10;1.40;;;19.30;99.90;;;;;;5052846;28;20645;-68
2023/06/05 05:13:59;;;;;;;5.93;1.47;;;19.20;99.90;;;;;;5052874;28;20184;-69
2023/06/05 05:16:29;;;;;;;9.50;1.87;;;19.30;99.90;;;;;;5052475;28;20236;-68
2023/06/05 05:18:57;;;;;;;5.10;1.40;;;19.50;99.90;;;;;;5052795;28;20274;-68
2023/06/05 05:21:25;;;;;;;10.90;1.33;;;19.90;99.90;;;;;;5052399;28;20179;-68
2023/06/05 05:23:53;;;;;;;3.57;1.17;;;19.80;99.90;;;;;;5052677;28;20727;-69
2023/06/05 05:26:21;;;;;;;6.90;1.23;;;19.30;99.90;;;;;;5054433;28;20274;-69
2023/06/05 05:28:49;;;;;;;6.63;2.07;;;18.80;99.90;;;;;;5038283;28;20188;-68
2023/06/05 05:31:17;;;;;;;5.23;1.50;;;18.50;99.90;;;;;;5055160;28;20586;-68
2023/06/05 05:33:45;;;;;;;8.47;1.73;;;18.20;99.90;;;;;;5072228;28;20187;-68
2023/06/05 05:36:14;;;;;;;5.87;1.30;;;18.20;99.90;;;;;;5063846;28;20202;-71
2023/06/05 05:38:42;;;;;;;6.67;2.60;;;18.10;99.90;;;;;;5052299;28;20220;-69
2023/06/05 05:41:10;;;;;;;11.60;2.93;;;18.00;99.90;;;;;;5051482;28;20195;-69
2023/06/05 05:43:38;;;;;;;8.77;1.63;;;18.00;99.90;;;;;;5051886;28;20183;-69
2023/06/05 05:46:05;;;;;;;3.60;1.30;;;18.00;99.90;;;;;;5051816;28;20610;-69
2023/06/05 05:48:37;;;;;;;7.17;1.17;;;17.90;99.90;;;;;;5051613;28;20179;-69
2023/06/05 05:51:07;;;;;;;8.03;1.23;;;17.80;99.90;;;;;;5051466;28;20522;-69
2023/06/05 05:53:36;;;;;;;5.43;1.40;;;17.60;99.90;;;;;;5051860;28;20177;-70
2023/06/05 05:56:04;;;;;;;5.33;1.27;;;17.50;99.90;;;;;;5062337;28;20271;-68
2023/06/05 05:58:32;;;;;;;5.73;1.40;;;17.40;99.90;;;;;;5068956;28;20226;-68
2023/06/05 06:01:00;;;;;;;10.47;1.80;;;17.30;99.90;;;;;;5063121;28;20188;-68
2023/06/05 06:03:29;;;;;;;11.30;1.93;;;17.30;99.90;;;;;;5067932;28;20570;-68
2023/06/05 06:05:57;;;;;;;9.73;1.57;;;17.30;99.90;;;;;;5060758;28;20223;-68
2023/06/05 06:08:26;;;;;;;6.53;1.30;;;17.20;99.90;;;;;;5058597;28;20177;-68
2023/06/05 06:10:55;;;;;;;4.30;1.37;;;17.10;99.90;;;;;;5069648;28;20633;-68
2023/06/05 06:13:22;;;;;;;7.10;1.30;;;17.00;99.90;;;;;;5055684;28;20187;-69
2023/06/05 06:15:50;;;;;;;9.80;1.30;;;16.90;99.90;;;;;;5071407;28;20179;-68
2023/06/05 06:18:19;;;;;;;6.37;1.63;;;16.90;99.90;;;;;;5057141;28;20520;-69
2023/06/05 06:20:47;;;;;;;7.60;1.23;;;16.80;99.90;;;;;;5051387;28;20180;-69
2023/06/05 06:23:14;;;;;;;6.90;1.93;;;16.70;99.90;;;;;;5051561;28;20168;-70
2023/06/05 06:25:43;;;;;;;5.93;1.23;;;16.60;99.90;;;;;;5051544;28;20258;-69
2023/06/05 06:28:11;;;;;;;6.13;1.30;;;16.50;99.90;;;;;;5051061;28;20272;-68
2023/06/05 06:30:38;;;;;;;6.70;2.40;;;16.50;99.90;;;;;;5051212;28;20176;-69
2023/06/05 06:33:06;;;;;;;6.77;1.50;;;16.60;99.90;;;;;;5051024;28;20215;-69
2023/06/05 06:35:34;;;;;;;6.43;1.80;;;16.60;99.90;;;;;;5051284;28;20180;-68
2023/06/05 06:38:03;;;;;;;3.23;1.20;;;16.60;99.90;;;;;;5051199;28;20641;-68
2023/06/05 06:40:31;;;;;;;3.97;1.23;;;16.60;99.90;;;;;;5033387;28;20180;-68
2023/06/05 06:42:59;;;;;;;5.27;1.43;;;16.60;99.90;;;;;;5050703;28;20184;-68
2023/06/05 06:45:27;;;;;;;9.40;1.77;;;16.60;99.90;;;;;;5050200;28;20286;-68
2023/06/05 06:47:55;;;;;;;9.67;1.93;;;16.60;99.90;;;;;;5066341;28;20186;-68
2023/06/05 06:50:23;;;;;;;4.80;1.50;;;16.50;99.90;;;;;;5062855;28;20627;-67
2023/06/05 06:52:50;;;;;;;3.47;1.50;;;16.50;99.90;;;;;;5051267;28;20172;-68
2023/06/05 06:55:18;;;;;;;6.63;1.07;;;16.60;99.90;;;;;;5051114;28;20173;-68
2023/06/05 06:57:46;;;;;;;7.90;1.97;;;16.60;99.90;;;;;;5050123;28;20904;-68
2023/06/05 07:00:14;;;;;;;6.63;1.33;;;16.70;99.90;;;;;;5032929;28;20559;-67
2023/06/05 07:02:43;;;;;;;6.27;1.63;;;16.70;99.90;;;;;;5052900;28;20200;-68
2023/06/05 07:05:11;;;;;;;6.10;1.40;;;16.70;99.90;;;;;;5054230;28;20180;-69
2023/06/05 07:07:39;;;;;;;6.83;1.60;;;16.70;99.90;;;;;;5055203;28;20231;-68
2023/06/05 07:10:07;;;;;;;4.83;1.30;;;16.70;99.90;;;;;;5055171;28;20246;-69
2023/06/05 07:12:35;;;;;;;5.63;1.70;;;16.70;99.90;;;;;;5055259;28;20188;-68
2023/06/05 07:15:03;;;;;;;5.03;1.50;;;16.60;99.90;;;;;;5055037;28;20180;-69
2023/06/05 07:17:31;;;;;;;4.83;1.00;;;16.60;99.90;;;;;;5053447;28;20653;-68
2023/06/05 07:19:59;;;;;;;3.10;1.20;;;16.40;99.90;;;;;;5054043;28;20192;-69
2023/06/05 07:22:29;;;;;;;4.47;1.27;;;16.30;99.90;;;;;;5055176;28;20201;-68
2023/06/05 07:24:57;;;;;;;5.83;1.40;;;16.20;99.90;;;;;;5055170;28;20301;-68
2023/06/05 07:27:25;;;;;;;4.47;1.53;;;16.10;99.90;;;;;;5056713;28;20239;-68
2023/06/05 07:29:53;;;;;;;6.70;1.40;;;15.90;99.90;;;;;;5054830;28;20187;-69
2023/06/05 07:32:21;;;;;;;6.63;1.83;;;15.90;99.90;;;;;;5054548;28;20199;-68
2023/06/05 07:34:48;;;;;;;4.40;1.83;;;15.80;99.90;;;;;;5054426;28;20214;-68
2023/06/05 07:37:16;;;;;;;7.60;1.50;;;15.80;99.90;;;;;;5054814;28;20176;-69
2023/06/05 07:39:44;;;;;;;3.67;1.33;;;15.70;99.90;;;;;;5054744;28;20630;-69
2023/06/05 07:42:12;;;;;;;2.43;1.40;;;15.60;99.90;;;;;;5054451;28;20184;-69
2023/06/05 07:44:39;;;;;;;5.77;1.73;;;15.70;99.90;;;;;;5054358;28;20629;-69
2023/06/05 07:47:07;;;;;;;5.33;1.43;;;15.60;99.90;;;;;;5054397;28;20259;-69
2023/06/05 07:49:35;;;;;;;3.43;1.20;;;15.60;99.90;;;;;;5054189;28;20184;-69
2023/06/05 07:52:03;;;;;;;6.37;1.57;;;15.70;99.90;;;;;;5054217;28;20184;-69
2023/06/05 07:54:30;;;;;;;4.97;1.50;;;15.70;99.90;;;;;;5036589;28;20541;-69
2023/06/05 07:56:59;;;;;;;3.90;1.40;;;15.70;99.90;;;;;;5054323;28;20173;-69
2023/06/05 07:59:27;;;;;;;2.97;1.73;;;15.70;99.90;;;;;;5053958;28;20196;-69
2023/06/05 08:01:56;;;;;;;2.50;1.20;;;15.60;99.90;;;;;;5054230;28;20615;-69
2023/06/05 08:04:25;;;;;;;5.33;1.90;;;15.50;99.90;;;;;;5036318;28;20633;-69
2023/06/05 08:06:53;;;;;;;5.23;1.90;;;15.50;99.90;;;;;;5054010;28;20359;-69
2023/06/05 08:09:21;;;;;;;4.00;2.00;;;15.30;99.90;;;;;;5054213;28;20172;-69
2023/06/05 08:11:49;;;;;;;3.97;2.07;;;15.20;99.90;;;;;;5054055;28;20181;-69
2023/06/05 08:14:16;;;;;;;4.03;1.80;;;15.10;99.90;;;;;;5038886;28;20554;-69
2023/06/05 08:16:45;;;;;;;6.73;1.90;;;14.90;99.90;;;;;;5073937;28;20208;-69
2023/06/05 08:19:13;;;;;;;6.30;3.00;;;14.70;99.90;;;;;;5034023;28;20276;-69
2023/06/05 08:21:40;;;;;;;3.30;1.80;;;14.60;99.90;;;;;;5033771;28;20344;-69
2023/06/05 08:24:08;;;;;;;5.47;2.10;;;14.50;99.90;;;;;;5033990;28;20276;-69
2023/06/05 08:26:36;;;;;;;8.63;2.37;;;14.40;99.90;;;;;;5052700;28;20301;-69
2023/06/05 08:29:05;;;;;;;6.43;2.33;;;14.30;99.90;;;;;;5053725;28;20646;-68
2023/06/05 08:31:34;;;;;;;9.20;2.57;;;14.20;99.90;;;;;;5054128;28;20263;-69
2023/06/05 08:34:02;;;;;;;4.33;1.73;;;14.10;99.90;;;;;;5053694;28;20192;-69
2023/06/05 08:36:32;;;;;;;8.23;2.60;;;14.00;99.90;;;;;;5053682;28;20275;-69
2023/06/05 08:39:00;;;;;;;4.03;2.00;;;13.90;99.90;;;;;;5053964;28;20176;-69
2023/06/05 08:41:32;;;;;;;6.67;2.20;;;13.80;99.90;;;;;;5060098;28;20179;-68
2023/06/05 08:44:00;;;;;;;6.93;2.20;;;13.70;99.90;;;;;;5073060;28;20245;-69
2023/06/05 08:46:31;;;;;;;6.33;2.73;;;13.70;99.90;;;;;;5048039;28;20697;-69
2023/06/05 08:49:02;;;;;;;6.93;2.87;;;13.60;99.90;;;;;;5072929;28;20663;-69
2023/06/05 08:51:29;;;;;;;5.30;2.10;;;13.60;99.90;;;;;;5069072;28;20194;-69
2023/06/05 08:54:06;;;;;;;8.03;2.77;;;13.60;99.90;;;;;;5070810;28;20188;-69
2023/06/05 08:56:36;;;;;;;4.63;2.60;;;13.50;99.90;;;;;;5068545;28;20191;-69
2023/06/05 08:59:10;;;;;;;7.87;3.10;;;13.40;99.90;;;;;;5053059;28;20226;-69
2023/06/05 09:01:37;;;;;;;8.77;2.90;;;13.30;99.90;;;;;;5053123;28;20191;-69
2023/06/05 09:04:05;;;;;;;6.33;2.60;;;13.30;99.90;;;;;;5061444;28;20169;-68
2023/06/05 09:06:33;;;;;;;4.87;2.47;;;13.30;99.90;;;;;;5072348;28;20203;-69
2023/06/05 09:09:02;;;;;;;7.23;2.80;;;13.20;99.90;;;;;;5073000;28;20661;-69
2023/06/05 09:11:32;;;;;;;8.83;2.50;;;13.10;99.90;;;;;;5070766;28;20226;-69
2023/06/05 09:14:01;;;;;;;4.20;2.50;;;13.10;99.90;;;;;;5052863;28;20242;-69
2023/06/05 09:16:44;;;;;;;7.33;2.70;;;13.10;99.90;;;;;;5052903;28;20238;-69
2023/06/05 09:19:13;;;;;;;8.30;2.40;;;13.00;99.90;;;;;;5034402;28;20601;-69
2023/06/05 09:21:51;;;;;;;10.43;2.73;;;12.90;99.90;;;;;;5052755;28;20255;-69
2023/06/05 09:24:24;;;;;;;6.30;2.17;;;12.90;99.90;;;;;;5052504;28;20183;-69
2023/06/05 09:27:05;;;;;;;6.67;3.13;;;12.80;99.90;;;;;;5067199;28;20261;-69
2023/06/05 09:29:38;;;;;;;5.87;2.77;;;12.70;99.90;;;;;;5072178;28;20283;-69
2023/06/05 09:32:08;;;;;;;10.00;3.23;;;12.70;99.90;;;;;;5054793;28;20178;-69
2023/06/05 09:34:38;;;;;;;8.10;3.67;;;12.60;99.90;;;;;;5070044;28;20183;-69
2023/06/05 09:37:13;;;;;;;7.97;3.80;;;12.50;99.90;;;;;;5072642;28;20183;-68
2023/06/05 09:39:46;;;;;;;12.23;3.97;;;12.40;99.90;;;;;;5071646;28;20268;-68
2023/06/05 09:42:14;;;;;;;11.13;4.00;;;12.40;99.90;;;;;;5071983;28;20655;-68
2023/06/05 09:44:41;;;;;;;15.97;3.20;;;12.40;99.90;;;;;;5055355;28;20707;-70
2023/06/05 09:47:14;;;;;;;7.13;3.10;;;12.30;99.90;;;;;;5051450;28;20219;-68
2023/06/05 09:49:42;;;;;;;6.43;2.40;;;12.30;99.90;;;;;;5051847;28;20207;-68
2023/06/05 09:52:12;;;;;;;7.23;3.73;;;12.30;99.90;;;;;;5051753;28;20186;-69
2023/06/05 09:54:47;;;;;;;8.37;3.00;;;12.20;99.90;;;;;;5051394;28;20188;-69
2023/06/05 09:57:16;;;;;;;9.63;3.30;;;12.20;99.90;;;;;;5051576;28;20193;-69
2023/06/05 09:59:55;;;;;;;8.00;4.07;;;12.20;99.90;;;;;;5051288;28;20184;-69
2023/06/05 10:02:31;;;;;;;9.37;4.30;;;12.20;99.90;;;;;;5051042;28;20185;-69
2023/06/05 10:05:00;;;;;;;15.03;4.37;;;12.30;99.90;;;;;;5051037;28;20184;-69
2023/06/05 10:07:30;;;;;;;9.83;4.53;;;12.30;99.90;;;;;;5051614;28;20211;-69
2023/06/05 10:09:59;;;;;;;9.43;5.07;;;12.40;99.90;;;;;;5052329;28;20191;-70
2023/06/05 10:12:27;;;;;;;8.37;5.00;;;12.40;99.90;;;;;;5034662;28;20194;-69
2023/06/05 10:14:56;;;;;;;12.30;5.60;;;12.50;99.90;;;;;;5052313;28;20211;-70
2023/06/05 10:17:24;;;;;;;11.30;4.47;;;12.50;99.90;;;;;;5052359;28;20579;-69
2023/06/05 10:19:52;;;;;;;7.87;4.93;;;12.50;99.90;;;;;;5051823;28;20540;-69
2023/06/05 10:22:25;;;;;;;9.77;4.90;;;12.40;99.90;;;;;;5051125;28;20198;-69
2023/06/05 10:24:58;;;;;;;11.63;5.37;;;12.40;99.90;;;;;;5033316;28;20232;-69
2023/06/05 10:27:57;;;;;;;7.97;4.80;;;12.40;99.90;;;;;;5052212;28;20219;-69
2023/06/05 10:30:43;;;;;;;10.77;5.37;;;12.40;99.90;;;;;;5026785;28;20251;-69
2023/06/05 10:33:32;;;;;;;16.87;5.90;;;12.40;99.90;;;;;;5051837;28;20183;-69
2023/06/05 10:36:16;;;;;;;9.00;4.93;;;12.30;99.90;;;;;;5052050;28;20649;-69
2023/06/05 10:38:44;;;;;;;11.53;5.77;;;12.30;99.90;;;;;;5051852;28;20180;-68
2023/06/05 10:41:13;;;;;;;10.57;4.93;;;12.30;99.90;;;;;;5051802;28;20180;-68
2023/06/05 10:43:48;;;;;;;8.60;4.00;;;12.30;99.90;;;;;;5051804;28;20210;-68
2023/06/05 10:46:28;;;;;;;12.13;5.23;;;12.30;99.90;;;;;;5051125;28;20239;-69
2023/06/05 10:49:20;;;;;;;13.43;6.00;;;12.30;99.90;;;;;;5051921;28;20532;-69
2023/06/05 10:51:50;;;;;;;8.97;5.50;;;12.40;99.90;;;;;;5033911;28;20272;-69
2023/06/05 10:54:24;;;;;;;9.47;6.03;;;12.40;99.90;;;;;;5052133;28;20187;-69
2023/06/05 10:57:01;;;;;;;8.50;6.63;;;12.50;99.90;;;;;;5051877;28;20180;-69
2023/06/05 10:59:37;;;;;;;11.73;6.27;;;12.50;99.90;;;;;;5052004;28;20172;-69
2023/06/05 11:02:14;;;;;;;12.47;6.13;;;12.50;99.90;;;;;;5051826;28;20667;-69
2023/06/05 11:04:48;;;;;;;10.90;6.07;;;12.50;99.90;;;;;;5051346;28;20641;-68
2023/06/05 11:07:26;;;;;;;16.73;6.33;;;12.60;99.90;;;;;;5051758;28;20215;-69
2023/06/05 11:10:20;;;;;;;11.50;6.13;;;12.70;99.90;;;;;;5051884;28;20375;-68
2023/06/05 11:12:48;;;;;;;12.90;6.00;;;12.70;99.90;;;;;;5051808;28;20177;-68
2023/06/05 11:15:39;;;;;;;17.87;6.93;;;12.80;99.90;;;;;;5051509;28;20642;-68
2023/06/05 11:18:32;;;;;;;12.17;6.67;;;12.80;99.90;;;;;;5051524;28;20183;-68
2023/06/05 11:21:01;;;;;;;14.47;6.50;;;12.90;99.90;;;;;;5051653;28;20215;-68
2023/06/05 11:23:29;;;;;;;11.20;5.83;;;12.90;99.90;;;;;;5051482;28;20216;-68
2023/06/05 11:25:58;;;;;;;15.53;6.77;;;12.90;99.90;;;;;;5051678;28;20214;-68
2023/06/05 11:28:40;;;;;;;14.67;6.33;;;12.90;99.90;;;;;;5051724;28;20177;-69
2023/06/05 11:31:08;;;;;;;8.73;5.93;;;12.90;99.90;;;;;;5051746;28;20177;-68
2023/06/05 11:33:39;;;;;;;10.13;6.40;;;12.90;99.90;;;;;;5051353;28;20207;-68
2023/06/05 11:36:08;;;;;;;11.47;6.03;;;13.00;99.90;;;;;;5050902;28;20661;-68
2023/06/05 11:38:36;;;;;;;9.57;6.10;;;13.00;99.90;;;;;;5051828;28;20187;-69
2023/06/05 11:41:08;;;;;;;10.50;6.27;;;13.00;99.90;;;;;;5050663;28;20196;-68
2023/06/05 11:43:43;;;;;;;9.33;5.70;;;13.00;99.90;;;;;;5051378;28;20239;-69
2023/06/05 11:46:13;;;;;;;9.63;5.60;;;13.10;99.90;;;;;;5050923;28;20228;-68
2023/06/05 11:48:45;;;;;;;12.87;6.03;;;13.10;99.90;;;;;;5053248;28;20184;-69
2023/06/05 11:51:13;;;;;;;16.47;7.10;;;13.10;99.90;;;;;;5054188;28;20611;-68
2023/06/05 11:53:49;;;;;;;14.00;6.70;;;13.20;99.90;;;;;;5054716;28;20173;-68
2023/06/05 11:56:17;;;;;;;14.90;7.10;;;13.10;99.90;;;;;;5054714;28;20258;-68
2023/06/05 11:58:45;;;;;;;10.10;7.27;;;13.10;99.90;;;;;;5055033;28;20605;-69
2023/06/05 12:01:21;;;;;;;12.23;6.60;;;13.10;99.90;;;;;;5037155;28;20235;-69
2023/06/05 12:04:10;;;;;;;10.57;6.60;;;13.20;99.90;;;;;;5054854;28;20176;-69
2023/06/05 12:06:42;;;;;;;10.83;6.60;;;13.20;99.90;;;;;;5053558;28;20216;-69
2023/06/05 12:09:11;;;;;;;9.53;5.93;;;13.30;99.90;;;;;;5054736;28;20239;-68
2023/06/05 12:11:40;;;;;;;14.33;6.20;;;13.30;99.90;;;;;;5054522;28;20192;-69
2023/06/05 12:14:07;;;;;;;10.80;5.30;;;13.40;99.90;;;;;;5054019;28;20566;-69
2023/06/05 12:16:40;;;;;;;11.63;5.70;;;13.40;99.90;;;;;;5054203;28;20226;-69
2023/06/05 12:19:18;;;;;;;9.57;5.97;;;13.30;99.90;;;;;;5054357;28;20188;-69
2023/06/05 12:21:48;;;;;;;11.13;5.50;;;13.40;99.90;;;;;;5054719;28;20180;-69
2023/06/05 12:24:23;;;;;;;8.47;5.20;;;13.40;99.90;;;;;;5054451;28;20180;-68
2023/06/05 12:26:55;;;;;;;9.50;4.90;;;13.40;99.90;;;;;;5054325;28;20216;-69
2023/06/05 12:29:28;;;;;;;7.87;5.23;;;13.40;99.90;;;;;;5053508;28;20189;-69
2023/06/05 12:32:00;;;;;;;7.87;4.47;;;13.40;99.90;;;;;;5054196;28;20585;-69
2023/06/05 12:34:56;;;;;;;5.63;3.80;;;13.50;99.90;;;;;;5053516;28;20176;-69
2023/06/05 12:37:31;;;;;;;7.07;3.73;;;13.50;99.90;;;;;;5053913;28;20184;-69
2023/06/05 12:40:08;;;;;;;8.83;3.70;;;13.50;99.90;;;;;;5053910;28;20191;-69
2023/06/05 12:42:40;;;;;;;7.77;3.27;;;13.60;99.90;;;;;;5053524;28;20219;-69
2023/06/05 12:45:09;;;;;;;5.83;3.57;;;13.60;99.90;;;;;;5054083;28;20256;-69
2023/06/05 12:47:38;;;;;;;18.63;4.57;;;13.60;99.90;;;;;;5053852;28;20242;-69
2023/06/05 12:50:09;;;;;;;7.67;4.90;;;13.60;99.90;;;;;;5053900;28;20260;-69
2023/06/05 12:52:41;;;;;;;9.13;5.33;;;13.60;99.90;;;;;;5053721;28;20188;-69
2023/06/05 12:55:10;;;;;;;7.70;5.03;;;13.60;99.90;;;;;;5053823;28;20188;-69
2023/06/05 12:57:38;;;;;;;10.13;5.40;;;13.60;99.90;;;;;;5053975;28;20270;-69
2023/06/05 13:00:15;;;;;;;7.77;4.10;;;13.60;99.90;;;;;;5052409;28;20612;-69